Airfield :
LOGIN :

Register | Disclaimer

   EN    FR    IT 

 










Legend :    VFR   Marginal VFR   IFR   Intensive IFR   Very Intensive IFR
Visi :
Ceiling :
>= 8 km
>= 3000ft
5 to 8 km
1000 to 3000 ft
1500m to 5 km
500 to 1000 ft
800 to 1500m
200 to 500 ft
< 800m
< 200 ft
Symbols :   Thunderstorms  Fog  Heavy snow  Heavy precipitations  Wind > 20 kt
SIGMETs :     Misc.  Thunderstorms  Icing  Turbulence  Mountain Waves  Volcanic Ashes






- Airport Elevation : 160 ft
- IATA code : LRT


LFRH - Lorient Lann Bihoue

CURRENT METAR :
  • 250830Z AUTO 04008KT CAVOK 23/17 Q1014 NOSIG

EXPIRED METARs :
  • 250800Z AUTO 05007KT CAVOK 22/17 Q1014 NOSIG
  • 250730Z AUTO 05007KT CAVOK 21/16 Q1014 NOSIG
  • 250700Z AUTO 05007KT CAVOK 20/16 Q1014 NOSIG
  • 250630Z AUTO 04007KT CAVOK 20/16 Q1014 NOSIG
  • 250600Z AUTO 04005KT CAVOK 18/15 Q1014 NOSIG
  • 250530Z AUTO 04005KT CAVOK 17/15 Q1014 NOSIG
  • 250500Z AUTO 04006KT CAVOK 16/14 Q1014 NOSIG
  • 250430Z AUTO 04006KT CAVOK 16/14 Q1014 NOSIG
  • 250400Z AUTO 04006KT CAVOK 16/14 Q1014 NOSIG

TAF TAF LFRH
Valid from the 25 at 06:00 until the 26 at 06:00 UTC


250500Z 2506/2606 04007KT CAVOK
TEMPO 2514/2517 26010KT



MET'MAP, your aeronautical weather chart ! - Copyright ORBIFLY December 2007 - Disclaimer

ORBIFLY MET'MAP TEAM :

Programming & Development : Alexandra Zaïnal
Original concept : Baudouin d'Aumeries
Technical & hardware support : Manuel Goepfert
Assistance : Marc-Olivier Méhu




SOURCES & CREDITS :

   NOAA